Time;durP1;ratioP1;P1;durP2;ratioP2;P2;SDS_P1;SDS_P2;PMS_P1;PMS_P2;Temp;Humidity;BMP_temperature;BMP_pressure;BME280_temperature;BME280_humidity;BME280_pressure;Samples;Min_cycle;Max_cycle;Signal;HPM_P1;HPM_P2
2023/06/19 00:00:33;;;;;;;8.40;7.60;;;;;;;;;;5068270;28;39979;-35
2023/06/19 00:03:01;;;;;;;8.60;7.80;;;;;;;;;;5069125;28;43341;-34
2023/06/19 00:05:30;;;;;;;8.90;7.97;;;;;;;;;;5066913;28;40296;-34
2023/06/19 00:07:58;;;;;;;9.13;8.32;;;;;;;;;;5068920;28;42609;-34
2023/06/19 00:10:26;;;;;;;8.23;7.53;;;;;;;;;;5067922;28;43243;-39
2023/06/19 00:12:54;;;;;;;9.30;8.35;;;;;;;;;;5066562;28;40445;-34
2023/06/19 00:15:22;;;;;;;8.68;7.93;;;;;;;;;;5064746;28;42538;-32
2023/06/19 00:17:50;;;;;;;9.52;8.63;;;;;;;;;;5068587;28;44153;-33
2023/06/19 00:20:18;;;;;;;9.43;7.78;;;;;;;;;;5064619;28;40077;-36
2023/06/19 00:22:51;;;;;;;8.98;8.07;;;;;;;;;;5068759;28;42580;-44
2023/06/19 00:25:19;;;;;;;9.40;8.05;;;;;;;;;;5067434;28;41291;-44
2023/06/19 00:27:47;;;;;;;8.57;7.78;;;;;;;;;;5068084;28;42662;-44
2023/06/19 00:30:15;;;;;;;8.82;8.02;;;;;;;;;;5068280;28;43596;-43
2023/06/19 00:32:52;;;;;;;8.27;7.20;;;;;;;;;;5068069;28;41066;-44
2023/06/19 00:35:22;;;;;;;8.70;7.80;;;;;;;;;;5065333;28;42654;-44
2023/06/19 00:37:51;;;;;;;9.43;8.35;;;;;;;;;;5075990;28;42937;-44
2023/06/19 00:40:22;;;;;;;9.20;8.40;;;;;;;;;;5067432;28;40673;-44
2023/06/19 00:42:50;;;;;;;9.23;8.00;;;;;;;;;;5068489;28;42808;-44
2023/06/19 00:45:18;;;;;;;8.93;7.70;;;;;;;;;;5067305;28;44178;-44
2023/06/19 00:47:46;;;;;;;8.98;7.93;;;;;;;;;;5067257;28;42157;-44
2023/06/19 00:50:14;;;;;;;10.32;8.05;;;;;;;;;;5068175;28;43597;-44
2023/06/19 00:52:42;;;;;;;9.10;8.30;;;;;;;;;;5068304;28;40069;-43
2023/06/19 00:55:11;;;;;;;8.70;7.90;;;;;;;;;;5067382;28;42692;-44
2023/06/19 00:57:40;;;;;;;8.20;7.50;;;;;;;;;;5067185;28;43789;-44
2023/06/19 01:00:10;;;;;;;9.25;8.35;;;;;;;;;;5068047;28;41342;-44
2023/06/19 01:02:39;;;;;;;8.05;7.35;;;;;;;;;;5065142;28;42464;-44
2023/06/19 01:05:08;;;;;;;8.38;7.68;;;;;;;;;;5068197;28;44048;-44
2023/06/19 01:07:40;;;;;;;8.50;7.70;;;;;;;;;;5067811;28;41306;-44
2023/06/19 01:10:09;;;;;;;8.27;7.47;;;;;;;;;;5063965;28;43739;-44
2023/06/19 01:12:39;;;;;;;8.48;7.68;;;;;;;;;;5067535;28;40432;-44
2023/06/19 01:15:07;;;;;;;8.75;7.82;;;;;;;;;;5066397;28;41173;-44
2023/06/19 01:17:35;;;;;;;9.00;8.15;;;;;;;;;;5066665;28;42997;-44
2023/06/19 01:20:10;;;;;;;8.63;7.82;;;;;;;;;;5065568;28;38829;-44
2023/06/19 01:22:43;;;;;;;8.02;7.22;;;;;;;;;;5063990;28;42081;-44
2023/06/19 01:25:13;;;;;;;7.95;7.25;;;;;;;;;;5065948;28;43505;-44
2023/06/19 01:27:42;;;;;;;8.43;7.63;;;;;;;;;;5067583;28;41596;-44
2023/06/19 01:30:10;;;;;;;9.05;7.28;;;;;;;;;;5053740;28;42917;-44
2023/06/19 01:32:40;;;;;;;8.27;7.32;;;;;;;;;;5067263;28;40640;-44
2023/06/19 01:35:09;;;;;;;8.10;7.30;;;;;;;;;;5065384;28;41282;-44
2023/06/19 01:37:37;;;;;;;8.00;7.20;;;;;;;;;;5065876;28;44728;-44
2023/06/19 01:40:09;;;;;;;7.90;7.10;;;;;;;;;;5067245;28;39271;-44
2023/06/19 01:42:37;;;;;;;8.40;7.57;;;;;;;;;;5065937;28;43155;-44
2023/06/19 01:45:06;;;;;;;8.07;7.05;;;;;;;;;;5065987;28;43663;-44
2023/06/19 01:47:34;;;;;;;8.23;7.43;;;;;;;;;;5066532;28;42375;-44
2023/06/19 01:50:04;;;;;;;7.90;7.10;;;;;;;;;;5067372;28;43315;-44
2023/06/19 01:52:31;;;;;;;7.90;7.20;;;;;;;;;;5064500;28;42656;-44
2023/06/19 01:54:59;;;;;;;8.35;7.53;;;;;;;;;;5065558;28;40976;-44
2023/06/19 01:57:29;;;;;;;8.10;7.38;;;;;;;;;;5066593;28;43804;-43
2023/06/19 01:59:57;;;;;;;7.78;7.07;;;;;;;;;;5064209;28;38561;-44
2023/06/19 02:02:24;;;;;;;7.35;6.65;;;;;;;;;;5066563;28;42602;-44
2023/06/19 02:04:52;;;;;;;7.65;6.85;;;;;;;;;;5066773;28;43046;-44
2023/06/19 02:07:20;;;;;;;8.05;7.35;;;;;;;;;;5064559;28;41332;-44
2023/06/19 02:09:48;;;;;;;7.68;6.40;;;;;;;;;;5065154;28;42339;-44
2023/06/19 02:12:16;;;;;;;6.68;6.07;;;;;;;;;;5065664;28;43623;-44
2023/06/19 02:14:45;;;;;;;7.60;6.95;;;;;;;;;;5067452;28;41169;-44
2023/06/19 02:17:13;;;;;;;6.72;6.13;;;;;;;;;;5065028;28;42306;-44
2023/06/19 02:19:42;;;;;;;7.70;6.57;;;;;;;;;;5064130;28;39857;-44
2023/06/19 02:22:10;;;;;;;7.68;6.97;;;;;;;;;;5067028;28;42683;-44
2023/06/19 02:24:39;;;;;;;7.50;6.80;;;;;;;;;;5066048;28;44138;-44
2023/06/19 02:27:07;;;;;;;7.65;6.57;;;;;;;;;;5066056;28;40527;-44
2023/06/19 02:29:35;;;;;;;7.22;6.22;;;;;;;;;;5066208;28;42662;-44
2023/06/19 02:32:04;;;;;;;7.50;6.80;;;;;;;;;;5064789;28;41959;-44
2023/06/19 02:34:34;;;;;;;7.50;6.72;;;;;;;;;;5062606;28;41359;-43
2023/06/19 02:37:05;;;;;;;7.78;6.50;;;;;;;;;;5098178;28;43335;-44
2023/06/19 02:39:33;;;;;;;7.50;6.80;;;;;;;;;;5065972;28;40369;-44
2023/06/19 02:42:01;;;;;;;7.32;6.63;;;;;;;;;;5065880;28;42635;-44
2023/06/19 02:44:29;;;;;;;6.65;6.05;;;;;;;;;;5065018;28;43720;-44
2023/06/19 02:46:57;;;;;;;6.28;5.78;;;;;;;;;;5064201;28;39593;-44
2023/06/19 02:49:26;;;;;;;7.20;6.45;;;;;;;;;;5065914;28;43712;-44
2023/06/19 02:51:54;;;;;;;7.93;7.13;;;;;;;;;;5064589;28;43156;-44
2023/06/19 02:54:22;;;;;;;8.20;6.88;;;;;;;;;;5063697;28;39450;-44
2023/06/19 02:56:50;;;;;;;7.30;6.60;;;;;;;;;;5066903;28;42539;-44
2023/06/19 02:59:18;;;;;;;7.03;6.43;;;;;;;;;;5065730;28;40049;-43
2023/06/19 03:01:47;;;;;;;6.90;6.25;;;;;;;;;;5064129;28;41721;-44
2023/06/19 03:04:15;;;;;;;6.70;6.10;;;;;;;;;;5066126;28;42889;-44
2023/06/19 03:06:45;;;;;;;6.60;6.00;;;;;;;;;;5063883;28;40161;-44
2023/06/19 03:09:13;;;;;;;7.30;6.63;;;;;;;;;;5063331;28;41820;-44
2023/06/19 03:11:41;;;;;;;6.65;6.05;;;;;;;;;;5065751;28;44240;-44
2023/06/19 03:14:09;;;;;;;6.53;5.82;;;;;;;;;;5064318;28;39269;-44
2023/06/19 03:16:38;;;;;;;6.43;5.82;;;;;;;;;;5063099;28;40751;-44
2023/06/19 03:19:06;;;;;;;6.07;5.55;;;;;;;;;;5064961;28;42165;-44
2023/06/19 03:21:35;;;;;;;6.40;5.80;;;;;;;;;;5063651;28;42181;-44
2023/06/19 03:24:05;;;;;;;6.60;6.00;;;;;;;;;;5065112;28;42945;-43
2023/06/19 03:26:34;;;;;;;5.88;5.38;;;;;;;;;;5063137;28;40467;-44
2023/06/19 03:29:03;;;;;;;6.13;5.55;;;;;;;;;;5066166;28;42701;-44
2023/06/19 03:31:44;;;;;;;5.82;5.30;;;;;;;;;;5063979;28;43630;-43
2023/06/19 03:34:12;;;;;;;5.75;5.15;;;;;;;;;;5066161;28;40566;-44
2023/06/19 03:36:40;;;;;;;7.38;5.63;;;;;;;;;;5064245;28;43914;-44
2023/06/19 03:39:12;;;;;;;6.00;5.32;;;;;;;;;;5064209;28;42906;-44
2023/06/19 03:41:40;;;;;;;5.90;5.25;;;;;;;;;;5064183;28;40055;-44
2023/06/19 03:44:08;;;;;;;6.30;5.70;;;;;;;;;;5062818;28;42347;-44
2023/06/19 03:46:36;;;;;;;5.65;5.15;;;;;;;;;;5063451;28;39305;-44
2023/06/19 03:49:06;;;;;;;6.22;4.57;;;;;;;;;;5063869;28;42368;-44
2023/06/19 03:51:34;;;;;;;5.78;5.28;;;;;;;;;;5064542;28;43421;-44
2023/06/19 03:54:02;;;;;;;5.82;5.32;;;;;;;;;;5064385;28;39250;-44
2023/06/19 03:56:31;;;;;;;6.63;5.38;;;;;;;;;;5063764;28;41208;-44
2023/06/19 03:58:59;;;;;;;5.50;5.00;;;;;;;;;;5064794;28;44703;-44
2023/06/19 04:01:27;;;;;;;5.55;5.05;;;;;;;;;;5063456;28;40640;-44
2023/06/19 04:03:55;;;;;;;5.03;4.63;;;;;;;;;;5066139;28;42077;-44
2023/06/19 04:06:23;;;;;;;4.93;4.43;;;;;;;;;;5062162;28;40703;-44
2023/06/19 04:08:51;;;;;;;5.05;4.57;;;;;;;;;;5064241;28;41090;-44
2023/06/19 04:11:20;;;;;;;5.13;4.47;;;;;;;;;;5064620;28;43418;-44
2023/06/19 04:13:49;;;;;;;5.18;4.60;;;;;;;;;;5063561;28;38805;-44
2023/06/19 04:16:17;;;;;;;4.55;4.10;;;;;;;;;;5063468;28;40982;-44
2023/06/19 04:18:45;;;;;;;4.90;4.50;;;;;;;;;;5063001;28;42392;-44
2023/06/19 04:21:14;;;;;;;4.50;4.10;;;;;;;;;;5065955;28;40933;-44
2023/06/19 04:23:42;;;;;;;4.32;3.92;;;;;;;;;;5069107;28;43267;-44
2023/06/19 04:26:10;;;;;;;4.57;4.18;;;;;;;;;;5068336;28;33580;-44
2023/06/19 04:28:41;;;;;;;4.53;3.78;;;;;;;;;;5068542;28;43211;-44
2023/06/19 04:31:10;;;;;;;4.78;4.38;;;;;;;;;;5066478;28;42117;-44
2023/06/19 04:33:40;;;;;;;4.47;3.65;;;;;;;;;;5065737;28;38752;-44
2023/06/19 04:36:09;;;;;;;4.28;3.88;;;;;;;;;;5068388;28;42561;-44
2023/06/19 04:38:37;;;;;;;4.65;4.10;;;;;;;;;;5067624;28;43223;-44
2023/06/19 04:41:05;;;;;;;4.20;3.63;;;;;;;;;;5067798;28;41363;-44
2023/06/19 04:43:36;;;;;;;4.22;3.83;;;;;;;;;;5067792;28;43106;-44
2023/06/19 04:46:04;;;;;;;4.38;3.97;;;;;;;;;;5067744;28;43489;-44
2023/06/19 04:48:36;;;;;;;4.22;3.83;;;;;;;;;;5067192;28;42626;-44
2023/06/19 04:51:04;;;;;;;3.97;3.58;;;;;;;;;;5068174;28;43096;-44
2023/06/19 04:53:32;;;;;;;3.78;3.38;;;;;;;;;;5067193;28;40773;-44
2023/06/19 04:56:00;;;;;;;4.70;3.83;;;;;;;;;;5068118;28;42178;-44
2023/06/19 04:58:29;;;;;;;3.97;3.58;;;;;;;;;;5067402;28;43407;-44
2023/06/19 05:00:57;;;;;;;4.53;3.42;;;;;;;;;;5066896;28;40893;-44
2023/06/19 05:03:25;;;;;;;5.63;3.67;;;;;;;;;;5067397;28;43322;-44
2023/06/19 05:05:54;;;;;;;3.80;3.50;;;;;;;;;;5068411;28;43577;-44
2023/06/19 05:08:22;;;;;;;3.80;3.50;;;;;;;;;;5066959;28;40626;-44
2023/06/19 05:10:50;;;;;;;3.88;3.50;;;;;;;;;;5067932;28;44170;-44
2023/06/19 05:13:18;;;;;;;3.38;3.08;;;;;;;;;;5068049;28;40993;-44
2023/06/19 05:15:46;;;;;;;4.70;3.67;;;;;;;;;;5067259;28;44165;-33
2023/06/19 05:18:14;;;;;;;3.88;3.53;;;;;;;;;;5068200;28;43100;-34
2023/06/19 05:20:42;;;;;;;3.35;3.05;;;;;;;;;;5068287;28;40584;-35
2023/06/19 05:23:12;;;;;;;3.63;3.20;;;;;;;;;;5067424;28;42813;-33
2023/06/19 05:25:40;;;;;;;3.58;3.28;;;;;;;;;;5067598;28;43393;-35
2023/06/19 05:28:08;;;;;;;3.63;3.33;;;;;;;;;;5067271;28;41449;-34
2023/06/19 05:30:35;;;;;;;3.40;3.10;;;;;;;;;;5066770;28;43190;-35
2023/06/19 05:33:04;;;;;;;3.83;3.53;;;;;;;;;;5066789;28;40061;-34
2023/06/19 05:35:32;;;;;;;3.42;3.13;;;;;;;;;;5067830;28;42584;-34
2023/06/19 05:37:59;;;;;;;3.30;3.00;;;;;;;;;;5066216;28;43381;-37
2023/06/19 05:40:29;;;;;;;3.83;3.42;;;;;;;;;;5066607;28;40932;-35
2023/06/19 05:42:57;;;;;;;6.00;3.38;;;;;;;;;;5066139;28;42760;-33
2023/06/19 05:45:25;;;;;;;4.82;3.03;;;;;;;;;;5066180;28;43038;-35
2023/06/19 05:47:53;;;;;;;3.90;3.60;;;;;;;;;;5067562;28;40620;-34
2023/06/19 05:50:21;;;;;;;3.60;3.03;;;;;;;;;;5065171;28;42699;-34
2023/06/19 05:52:49;;;;;;;3.35;3.00;;;;;;;;;;5067248;28;43521;-36
2023/06/19 05:55:17;;;;;;;3.15;2.80;;;;;;;;;;5066936;28;42162;-36
2023/06/19 05:57:47;;;;;;;3.30;3.00;;;;;;;;;;5066634;28;42889;-38
2023/06/19 06:00:15;;;;;;;4.32;3.08;;;;;;;;;;5066574;28;40368;-35
2023/06/19 06:02:43;;;;;;;3.58;3.28;;;;;;;;;;5067858;28;43310;-33
2023/06/19 06:05:11;;;;;;;2.85;2.55;;;;;;;;;;5066475;28;43964;-35
2023/06/19 06:07:39;;;;;;;5.07;3.03;;;;;;;;;;5060451;28;39796;-35
2023/06/19 06:10:09;;;;;;;3.35;3.05;;;;;;;;;;5066980;28;43319;-36
2023/06/19 06:12:37;;;;;;;4.53;3.20;;;;;;;;;;5065545;28;43487;-34
2023/06/19 06:15:06;;;;;;;3.10;2.85;;;;;;;;;;5067926;28;41059;-34
2023/06/19 06:17:34;;;;;;;4.03;3.28;;;;;;;;;;5065718;28;43285;-35
2023/06/19 06:20:04;;;;;;;4.43;3.10;;;;;;;;;;5066429;28;40930;-36
2023/06/19 06:22:32;;;;;;;5.93;3.20;;;;;;;;;;5066359;28;42808;-37
2023/06/19 06:25:00;;;;;;;3.28;2.97;;;;;;;;;;5066427;28;43244;-34
2023/06/19 06:27:27;;;;;;;3.38;2.90;;;;;;;;;;5066259;28;41376;-35
2023/06/19 06:29:55;;;;;;;3.72;2.90;;;;;;;;;;5067165;28;42467;-32
2023/06/19 06:32:26;;;;;;;3.42;2.97;;;;;;;;;;5066029;28;44490;-31
2023/06/19 06:34:53;;;;;;;4.10;2.95;;;;;;;;;;5068027;28;39728;-33
2023/06/19 06:37:22;;;;;;;5.47;3.10;;;;;;;;;;5065829;28;43291;-32
2023/06/19 06:39:50;;;;;;;5.30;3.28;;;;;;;;;;5065598;28;40997;-36
2023/06/19 06:42:18;;;;;;;3.75;3.15;;;;;;;;;;5066011;28;43065;-34
2023/06/19 06:44:46;;;;;;;3.95;3.30;;;;;;;;;;5065797;28;44116;-35
2023/06/19 06:47:14;;;;;;;3.65;2.88;;;;;;;;;;5065829;28;40485;-35
2023/06/19 06:49:43;;;;;;;3.08;2.80;;;;;;;;;;5065963;28;43937;-35
2023/06/19 06:52:11;;;;;;;3.88;3.10;;;;;;;;;;5063766;28;43081;-43
2023/06/19 06:54:39;;;;;;;4.00;3.30;;;;;;;;;;5064457;28;41460;-43
2023/06/19 06:57:08;;;;;;;5.47;3.38;;;;;;;;;;5066454;28;43620;-43
2023/06/19 06:59:36;;;;;;;4.57;3.53;;;;;;;;;;5065413;28;41033;-42
2023/06/19 07:02:04;;;;;;;4.57;3.35;;;;;;;;;;5065671;28;43172;-43
2023/06/19 07:04:32;;;;;;;4.28;2.80;;;;;;;;;;5064444;28;42860;-42
2023/06/19 07:07:03;;;;;;;4.03;3.55;;;;;;;;;;5064900;28;40620;-42
2023/06/19 07:09:31;;;;;;;4.05;3.40;;;;;;;;;;5061361;28;43662;-43
2023/06/19 07:11:59;;;;;;;4.32;3.60;;;;;;;;;;5066026;28;42789;-43
2023/06/19 07:14:27;;;;;;;3.97;3.30;;;;;;;;;;5063925;28;40355;-43
2023/06/19 07:16:55;;;;;;;6.15;3.70;;;;;;;;;;5064992;28;42819;-42
2023/06/19 07:19:23;;;;;;;5.05;3.70;;;;;;;;;;5065461;28;43568;-42
2023/06/19 07:21:51;;;;;;;8.13;3.78;;;;;;;;;;5065082;28;42833;-42
2023/06/19 07:24:20;;;;;;;5.50;3.67;;;;;;;;;;5064881;28;44111;-42
2023/06/19 07:26:48;;;;;;;4.32;3.60;;;;;;;;;;5065389;28;39891;-42
2023/06/19 07:29:16;;;;;;;6.13;3.70;;;;;;;;;;5064641;28;42759;-42
2023/06/19 07:31:44;;;;;;;4.60;3.47;;;;;;;;;;5065306;28;43409;-43
2023/06/19 07:34:12;;;;;;;6.05;3.50;;;;;;;;;;5064480;28;42489;-43
2023/06/19 07:36:40;;;;;;;6.45;3.50;;;;;;;;;;5064259;28;43680;-43
2023/06/19 07:39:08;;;;;;;5.50;3.50;;;;;;;;;;5055725;28;43498;-43
2023/06/19 07:41:37;;;;;;;5.55;3.67;;;;;;;;;;5065340;28;40407;-43
2023/06/19 07:44:05;;;;;;;8.73;3.80;;;;;;;;;;5063606;28;44150;-43
2023/06/19 07:46:33;;;;;;;5.40;4.10;;;;;;;;;;5050997;28;40088;-43
2023/06/19 07:49:01;;;;;;;3.92;3.63;;;;;;;;;;5064476;28;42736;-43
2023/06/19 07:51:29;;;;;;;4.13;3.72;;;;;;;;;;5061599;28;41946;-43
2023/06/19 07:53:57;;;;;;;4.30;3.78;;;;;;;;;;5064938;28;41652;-43
2023/06/19 07:56:25;;;;;;;5.00;3.63;;;;;;;;;;5065702;28;42725;-43
2023/06/19 07:58:54;;;;;;;7.40;4.13;;;;;;;;;;5068409;28;42892;-43
2023/06/19 08:01:22;;;;;;;5.10;4.15;;;;;;;;;;5068400;28;40442;-43
2023/06/19 08:03:50;;;;;;;4.25;3.53;;;;;;;;;;5067897;28;43672;-43
2023/06/19 08:06:18;;;;;;;4.07;3.67;;;;;;;;;;5067801;28;40246;-43
2023/06/19 08:08:46;;;;;;;6.03;4.20;;;;;;;;;;5068674;28;42729;-43
2023/06/19 08:11:14;;;;;;;4.78;3.83;;;;;;;;;;5068180;28;44009;-43
2023/06/19 08:13:42;;;;;;;4.20;3.90;;;;;;;;;;5068084;28;41031;-43
2023/06/19 08:16:11;;;;;;;4.50;3.75;;;;;;;;;;5069113;28;43058;-43
2023/06/19 08:18:39;;;;;;;4.30;3.90;;;;;;;;;;5066710;28;43293;-44
2023/06/19 08:21:07;;;;;;;6.50;3.80;;;;;;;;;;5065827;28;40919;-43
2023/06/19 08:23:35;;;;;;;4.45;3.95;;;;;;;;;;5063846;28;42186;-43
2023/06/19 08:26:03;;;;;;;4.50;3.90;;;;;;;;;;5064682;28;43631;-43
2023/06/19 08:28:31;;;;;;;4.25;3.85;;;;;;;;;;5067017;28;43091;-43
2023/06/19 08:30:59;;;;;;;3.78;3.47;;;;;;;;;;5067032;28;44660;-43
2023/06/19 08:33:28;;;;;;;4.28;3.78;;;;;;;;;;5067145;28;40203;-44
2023/06/19 08:35:56;;;;;;;3.83;3.53;;;;;;;;;;5067252;28;42474;-45
2023/06/19 08:38:24;;;;;;;6.82;3.92;;;;;;;;;;5065742;28;43182;-44
2023/06/19 08:40:52;;;;;;;4.00;3.70;;;;;;;;;;5066564;28;40009;-44
2023/06/19 08:43:20;;;;;;;4.00;3.45;;;;;;;;;;5065863;28;42201;-44
2023/06/19 08:45:54;;;;;;;4.88;4.20;;;;;;;;;;5061936;28;43487;-45
2023/06/19 08:48:22;;;;;;;3.95;3.55;;;;;;;;;;5065561;28;42867;-44
2023/06/19 08:50:51;;;;;;;3.83;3.50;;;;;;;;;;5062552;28;43311;-45
2023/06/19 08:53:19;;;;;;;3.95;3.60;;;;;;;;;;5065476;28;40679;-45
2023/06/19 08:55:47;;;;;;;5.32;3.92;;;;;;;;;;5066109;28;42801;-45
2023/06/19 08:58:21;;;;;;;3.97;3.58;;;;;;;;;;5067541;28;44312;-45
2023/06/19 09:00:49;;;;;;;4.00;3.70;;;;;;;;;;5053385;28;41276;-44
2023/06/19 09:03:20;;;;;;;4.78;4.38;;;;;;;;;;5065531;28;42570;-44
2023/06/19 09:05:50;;;;;;;4.82;3.88;;;;;;;;;;5065960;28;43581;-45
2023/06/19 09:08:21;;;;;;;4.60;4.20;;;;;;;;;;5064166;28;39011;-44
2023/06/19 09:10:56;;;;;;;4.63;4.18;;;;;;;;;;5065016;28;42014;-45
2023/06/19 09:13:24;;;;;;;5.05;4.10;;;;;;;;;;5067223;28;42143;-44
2023/06/19 09:15:58;;;;;;;4.45;3.70;;;;;;;;;;5064254;28;41986;-44
2023/06/19 09:18:26;;;;;;;4.55;4.15;;;;;;;;;;5064283;28;43258;-44
2023/06/19 09:20:54;;;;;;;5.53;4.05;;;;;;;;;;5066421;28;41411;-44
2023/06/19 09:23:24;;;;;;;5.13;4.30;;;;;;;;;;5067178;28;42420;-44
2023/06/19 09:25:54;;;;;;;4.20;3.78;;;;;;;;;;5064788;28;43031;-44
2023/06/19 09:28:23;;;;;;;4.45;4.05;;;;;;;;;;5066538;28;40296;-45
2023/06/19 09:30:54;;;;;;;4.60;4.13;;;;;;;;;;5067142;28;42698;-45
2023/06/19 09:33:22;;;;;;;4.20;3.88;;;;;;;;;;5063716;28;39899;-44
2023/06/19 09:35:50;;;;;;;4.63;4.22;;;;;;;;;;5065191;28;43504;-44
2023/06/19 09:38:19;;;;;;;4.90;4.40;;;;;;;;;;5066110;28;45650;-45
2023/06/19 09:40:48;;;;;;;6.72;4.30;;;;;;;;;;5066469;28;40345;-44
2023/06/19 09:43:16;;;;;;;5.18;4.43;;;;;;;;;;5066206;28;43433;-44
2023/06/19 09:45:45;;;;;;;4.65;4.25;;;;;;;;;;5063830;28;43261;-44
2023/06/19 09:48:12;;;;;;;5.05;4.47;;;;;;;;;;5066780;28;41104;-45
2023/06/19 09:50:48;;;;;;;4.25;3.92;;;;;;;;;;5064157;28;40491;-44
2023/06/19 09:53:17;;;;;;;4.75;4.30;;;;;;;;;;5066782;28;43007;-44
2023/06/19 09:55:45;;;;;;;5.30;4.45;;;;;;;;;;5066867;28;42780;-44
2023/06/19 09:58:14;;;;;;;5.13;4.60;;;;;;;;;;5065511;28;43108;-44
2023/06/19 10:00:43;;;;;;;4.20;3.90;;;;;;;;;;5066274;28;41580;-44
2023/06/19 10:03:12;;;;;;;7.95;4.65;;;;;;;;;;5065520;28;42794;-44
2023/06/19 10:05:41;;;;;;;4.88;4.43;;;;;;;;;;5063780;28;43645;-44
2023/06/19 10:08:09;;;;;;;4.80;4.40;;;;;;;;;;5066865;28;40775;-44
2023/06/19 10:10:37;;;;;;;4.93;4.47;;;;;;;;;;5066290;28;43051;-44
2023/06/19 10:13:12;;;;;;;4.35;4.05;;;;;;;;;;5067141;28;43755;-45
2023/06/19 10:15:42;;;;;;;5.03;4.50;;;;;;;;;;5063743;28;40134;-44
2023/06/19 10:18:13;;;;;;;4.82;4.43;;;;;;;;;;5065099;28;43058;-44
2023/06/19 10:20:41;;;;;;;4.68;4.28;;;;;;;;;;5064157;28;40316;-44
2023/06/19 10:23:16;;;;;;;4.55;4.15;;;;;;;;;;5065887;28;42787;-44
2023/06/19 10:25:45;;;;;;;5.10;4.68;;;;;;;;;;5062696;28;43218;-44
2023/06/19 10:28:17;;;;;;;4.90;4.47;;;;;;;;;;5066087;28;41041;-44
2023/06/19 10:30:46;;;;;;;4.55;4.20;;;;;;;;;;5066713;28;43784;-45
2023/06/19 10:33:14;;;;;;;4.80;4.40;;;;;;;;;;5064369;28;44466;-44
2023/06/19 10:35:42;;;;;;;4.60;4.20;;;;;;;;;;5066211;28;40051;-44
2023/06/19 10:38:10;;;;;;;4.88;4.30;;;;;;;;;;5065650;28;42917;-44
2023/06/19 10:40:38;;;;;;;4.97;4.57;;;;;;;;;;5065533;28;41409;-44
2023/06/19 10:43:06;;;;;;;5.25;4.85;;;;;;;;;;5065126;28;42939;-44
2023/06/19 10:45:34;;;;;;;4.63;4.22;;;;;;;;;;5062379;28;43317;-44
2023/06/19 10:48:05;;;;;;;5.03;4.38;;;;;;;;;;5066524;28;20309;-44
2023/06/19 10:50:38;;;;;;;5.13;4.63;;;;;;;;;;5065593;28;42736;-44
2023/06/19 10:53:06;;;;;;;4.53;4.10;;;;;;;;;;5064920;28;44603;-44
2023/06/19 10:55:34;;;;;;;4.93;4.53;;;;;;;;;;5065262;28;41380;-44
2023/06/19 10:58:03;;;;;;;5.03;4.53;;;;;;;;;;5065709;28;43381;-44
2023/06/19 11:00:33;;;;;;;4.90;4.50;;;;;;;;;;5065003;28;41068;-44
2023/06/19 11:03:01;;;;;;;7.03;4.80;;;;;;;;;;5065876;28;42181;-45
2023/06/19 11:05:31;;;;;;;5.25;4.50;;;;;;;;;;5063478;28;42029;-45
2023/06/19 11:07:59;;;;;;;4.70;4.30;;;;;;;;;;5064905;28;40112;-45
2023/06/19 11:10:28;;;;;;;4.90;4.50;;;;;;;;;;5065198;28;42327;-44
2023/06/19 11:12:56;;;;;;;4.90;4.50;;;;;;;;;;5064968;28;43562;-44
2023/06/19 11:15:30;;;;;;;4.40;4.03;;;;;;;;;;5063837;28;41528;-44
2023/06/19 11:17:58;;;;;;;4.78;4.38;;;;;;;;;;5064417;28;42859;-44
2023/06/19 11:20:26;;;;;;;5.30;4.80;;;;;;;;;;5064841;28;43827;-44
2023/06/19 11:22:59;;;;;;;5.25;4.85;;;;;;;;;;5065350;28;42417;-44
2023/06/19 11:25:35;;;;;;;4.85;4.45;;;;;;;;;;5065190;28;43180;-46
2023/06/19 11:28:03;;;;;;;5.45;4.95;;;;;;;;;;5062653;28;41892;-44
2023/06/19 11:30:31;;;;;;;5.20;4.40;;;;;;;;;;5065130;28;42658;-44
2023/06/19 11:33:00;;;;;;;4.47;4.07;;;;;;;;;;5066891;28;42497;-44
2023/06/19 11:35:34;;;;;;;5.22;4.75;;;;;;;;;;5068034;28;40041;-44
2023/06/19 11:38:03;;;;;;;5.85;4.68;;;;;;;;;;5065361;28;43095;-44
2023/06/19 11:40:39;;;;;;;5.65;5.10;;;;;;;;;;5065807;28;43314;-44
2023/06/19 11:43:08;;;;;;;5.28;4.78;;;;;;;;;;5065928;28;41312;-44
2023/06/19 11:45:48;;;;;;;5.90;4.80;;;;;;;;;;5066526;28;42055;-44
2023/06/19 11:48:22;;;;;;;5.97;4.70;;;;;;;;;;5065383;28;41253;-44
2023/06/19 11:50:51;;;;;;;4.97;4.55;;;;;;;;;;5065096;28;42847;-44
2023/06/19 11:53:20;;;;;;;5.82;5.18;;;;;;;;;;5067546;28;43847;-44
2023/06/19 11:55:48;;;;;;;5.18;4.70;;;;;;;;;;5067819;28;40491;-44
2023/06/19 11:58:16;;;;;;;5.40;4.90;;;;;;;;;;5067929;28;42972;-44
2023/06/19 12:00:44;;;;;;;5.45;4.95;;;;;;;;;;5069003;28;42372;-44
2023/06/19 12:03:12;;;;;;;5.50;5.00;;;;;;;;;;5068109;28;40380;-44
2023/06/19 12:05:40;;;;;;;5.68;4.68;;;;;;;;;;5068648;28;42153;-44
2023/06/19 12:08:08;;;;;;;5.43;4.80;;;;;;;;;;5068085;28;41412;-44
2023/06/19 12:10:37;;;;;;;5.88;5.25;;;;;;;;;;5067335;28;42427;-44
2023/06/19 12:13:05;;;;;;;5.30;4.80;;;;;;;;;;5066942;28;43378;-44
2023/06/19 12:15:33;;;;;;;5.25;4.68;;;;;;;;;;5067208;28;40391;-44
2023/06/19 12:18:06;;;;;;;5.60;5.15;;;;;;;;;;5067620;28;43172;-38
2023/06/19 12:20:34;;;;;;;5.50;5.10;;;;;;;;;;5066876;28;42677;-36
2023/06/19 12:23:03;;;;;;;5.85;5.35;;;;;;;;;;5067723;28;41141;-36
2023/06/19 12:25:31;;;;;;;6.28;5.72;;;;;;;;;;5067832;28;43749;-37
2023/06/19 12:28:00;;;;;;;5.63;5.13;;;;;;;;;;5068515;28;43397;-33
2023/06/19 12:30:28;;;;;;;5.88;5.28;;;;;;;;;;5067524;28;42647;-36
2023/06/19 12:32:56;;;;;;;6.30;5.80;;;;;;;;;;5066903;28;43356;-35
2023/06/19 12:35:25;;;;;;;5.75;5.25;;;;;;;;;;5066276;28;41113;-35
2023/06/19 12:37:54;;;;;;;5.68;5.18;;;;;;;;;;5067477;28;42415;-38
2023/06/19 12:40:23;;;;;;;6.25;5.65;;;;;;;;;;5060933;28;44479;-39
2023/06/19 12:42:51;;;;;;;5.65;5.15;;;;;;;;;;5067076;28;41336;-34
2023/06/19 12:45:20;;;;;;;6.07;5.47;;;;;;;;;;5066622;28;42584;-38
2023/06/19 12:47:48;;;;;;;6.40;5.53;;;;;;;;;;5068244;28;44505;-37
2023/06/19 12:50:16;;;;;;;6.07;5.55;;;;;;;;;;5068188;28;40095;-37
2023/06/19 12:52:44;;;;;;;8.15;6.55;;;;;;;;;;5067540;28;44519;-33
2023/06/19 12:55:12;;;;;;;6.25;5.65;;;;;;;;;;5067921;28;39900;-37
2023/06/19 12:57:40;;;;;;;6.72;6.03;;;;;;;;;;5067812;28;42327;-36
2023/06/19 13:00:11;;;;;;;6.32;5.72;;;;;;;;;;5067501;28;43300;-33
2023/06/19 13:02:42;;;;;;;6.32;5.72;;;;;;;;;;5064600;28;40618;-35
2023/06/19 13:05:11;;;;;;;7.05;6.03;;;;;;;;;;5068337;28;42430;-35
2023/06/19 13:07:38;;;;;;;6.93;5.63;;;;;;;;;;5066814;28;43006;-34
2023/06/19 13:10:07;;;;;;;7.43;6.20;;;;;;;;;;5068780;28;40233;-35
2023/06/19 13:12:35;;;;;;;7.20;5.82;;;;;;;;;;5067366;28;43578;-34
2023/06/19 13:15:03;;;;;;;6.45;5.85;;;;;;;;;;5067189;28;41142;-33
2023/06/19 13:17:31;;;;;;;6.13;5.63;;;;;;;;;;5066435;28;43136;-36
2023/06/19 13:20:00;;;;;;;6.43;5.82;;;;;;;;;;5065162;28;43029;-39
2023/06/19 13:22:28;;;;;;;6.07;5.55;;;;;;;;;;5066221;28;42540;-33
2023/06/19 13:24:56;;;;;;;5.82;5.32;;;;;;;;;;5066346;28;42683;-31
2023/06/19 13:27:24;;;;;;;6.13;5.55;;;;;;;;;;5066530;28;44144;-35
2023/06/19 13:29:52;;;;;;;6.03;5.53;;;;;;;;;;5067060;28;40420;-32
2023/06/19 13:32:20;;;;;;;7.05;5.72;;;;;;;;;;5067483;28;43235;-35
2023/06/19 13:34:48;;;;;;;6.78;6.03;;;;;;;;;;5066403;28;41330;-31
2023/06/19 13:37:17;;;;;;;6.30;5.70;;;;;;;;;;5066876;28;43760;-33
2023/06/19 13:39:45;;;;;;;6.85;5.93;;;;;;;;;;5067058;28;43374;-31
2023/06/19 13:42:13;;;;;;;6.55;5.57;;;;;;;;;;5066854;28;40799;-36
2023/06/19 13:44:40;;;;;;;6.60;5.88;;;;;;;;;;5066011;28;42527;-31
2023/06/19 13:47:08;;;;;;;6.50;5.90;;;;;;;;;;5067203;28;43339;-33
2023/06/19 13:49:37;;;;;;;5.93;5.32;;;;;;;;;;5065591;28;41885;-32
2023/06/19 13:52:05;;;;;;;5.85;5.28;;;;;;;;;;5067417;28;42714;-33
2023/06/19 13:54:35;;;;;;;6.70;5.60;;;;;;;;;;5066302;28;43959;-32
2023/06/19 13:57:03;;;;;;;6.35;5.75;;;;;;;;;;5066737;28;42116;-31
2023/06/19 13:59:31;;;;;;;7.07;6.38;;;;;;;;;;5066151;28;43204;-33
2023/06/19 14:01:59;;;;;;;6.38;5.10;;;;;;;;;;5067717;28;41190;-33
2023/06/19 14:04:27;;;;;;;6.60;5.90;;;;;;;;;;5065664;28;43593;-31
2023/06/19 14:06:55;;;;;;;7.90;5.65;;;;;;;;;;5065345;28;43261;-34
2023/06/19 14:09:23;;;;;;;6.80;5.25;;;;;;;;;;5062959;28;39200;-36
2023/06/19 14:11:52;;;;;;;5.95;5.35;;;;;;;;;;5066355;28;42672;-31
2023/06/19 14:14:20;;;;;;;9.15;5.90;;;;;;;;;;5065801;28;42940;-33
2023/06/19 14:16:48;;;;;;;6.97;5.90;;;;;;;;;;5066313;28;40069;-32
2023/06/19 14:19:16;;;;;;;6.18;5.60;;;;;;;;;;5065847;28;43569;-32
2023/06/19 14:21:44;;;;;;;6.10;5.05;;;;;;;;;;5066518;28;41275;-33
2023/06/19 14:24:12;;;;;;;6.07;5.47;;;;;;;;;;5066070;28;42352;-33
2023/06/19 14:26:40;;;;;;;5.78;5.13;;;;;;;;;;5065296;28;43622;-32
2023/06/19 14:29:10;;;;;;;6.53;5.43;;;;;;;;;;5066706;28;40480;-33
2023/06/19 14:31:38;;;;;;;5.28;4.78;;;;;;;;;;5065158;28;43438;-36
2023/06/19 14:34:06;;;;;;;5.80;5.30;;;;;;;;;;5063785;28;42522;-31
2023/06/19 14:36:33;;;;;;;6.25;5.35;;;;;;;;;;5062281;28;41219;-33
2023/06/19 14:39:01;;;;;;;4.78;4.25;;;;;;;;;;5066000;28;43238;-33
2023/06/19 14:41:29;;;;;;;6.15;5.18;;;;;;;;;;5065119;28;41497;-33
2023/06/19 14:43:57;;;;;;;5.45;4.95;;;;;;;;;;5065864;28;42245;-32
2023/06/19 14:46:27;;;;;;;5.00;4.60;;;;;;;;;;5065005;28;43312;-31
2023/06/19 14:49:06;;;;;;;5.65;4.97;;;;;;;;;;5063062;28;39856;-33
2023/06/19 14:51:34;;;;;;;4.53;4.13;;;;;;;;;;5059047;28;42562;-32